sensor_id;sensor_type;location;lat;lon;timestamp;pressure;altitude;pressure_sealevel;temperature;humidity
78673;BME280;67988;60.086;30.354;2023-02-26T00:00:27;99877.56;;;-3.66;70.27
78673;BME280;67988;60.086;30.354;2023-02-26T00:02:54;99891.28;;;-3.63;70.39
78673;BME280;67988;60.086;30.354;2023-02-26T00:05:21;99877.78;;;-3.74;70.56
78673;BME280;67988;60.086;30.354;2023-02-26T00:07:48;99889.03;;;-3.73;70.72
78673;BME280;67988;60.086;30.354;2023-02-26T00:10:17;99894.94;;;-3.68;70.82
78673;BME280;67988;60.086;30.354;2023-02-26T00:12:45;99897.91;;;-3.54;70.33
78673;BME280;67988;60.086;30.354;2023-02-26T00:15:13;99899.63;;;-3.53;69.84
78673;BME280;67988;60.086;30.354;2023-02-26T00:17:48;99836.44;;;-4.06;70.24
78673;BME280;67988;60.086;30.354;2023-02-26T00:20:18;99902.72;;;-3.42;69.49
78673;BME280;67988;60.086;30.354;2023-02-26T00:22:45;99897.91;;;-3.54;69.65
78673;BME280;67988;60.086;30.354;2023-02-26T00:25:12;99890.44;;;-3.63;69.88
78673;BME280;67988;60.086;30.354;2023-02-26T00:27:41;99880.41;;;-3.74;70.68
78673;BME280;67988;60.086;30.354;2023-02-26T00:30:10;99890.72;;;-3.46;69.70
78673;BME280;67988;60.086;30.354;2023-02-26T00:32:39;99899.81;;;-3.59;69.58
78673;BME280;67988;60.086;30.354;2023-02-26T00:35:08;99887.28;;;-3.73;70.23
78673;BME280;67988;60.086;30.354;2023-02-26T00:37:51;99900.38;;;-3.50;69.78
78673;BME280;67988;60.086;30.354;2023-02-26T00:40:22;99894.56;;;-3.83;70.25
78673;BME280;67988;60.086;30.354;2023-02-26T00:42:53;99896.00;;;-3.74;70.15
78673;BME280;67988;60.086;30.354;2023-02-26T00:45:21;99906.84;;;-3.61;70.09
78673;BME280;67988;60.086;30.354;2023-02-26T00:47:50;99910.63;;;-3.45;69.45
78673;BME280;67988;60.086;30.354;2023-02-26T00:50:23;99906.00;;;-3.37;69.22
78673;BME280;67988;60.086;30.354;2023-02-26T00:53:01;99907.75;;;-3.38;68.90
78673;BME280;67988;60.086;30.354;2023-02-26T00:55:29;99816.03;;;-4.18;69.66
78673;BME280;67988;60.086;30.354;2023-02-26T00:57:58;99908.13;;;-3.48;69.41
78673;BME280;67988;60.086;30.354;2023-02-26T01:00:25;99918.22;;;-3.39;69.38
78673;BME280;67988;60.086;30.354;2023-02-26T01:02:52;99905.44;;;-3.45;69.19
78673;BME280;67988;60.086;30.354;2023-02-26T01:05:20;99907.03;;;-3.67;69.78
78673;BME280;67988;60.086;30.354;2023-02-26T01:07:53;99903.34;;;-3.60;70.11
78673;BME280;67988;60.086;30.354;2023-02-26T01:10:23;99910.09;;;-3.55;69.68
78673;BME280;67988;60.086;30.354;2023-02-26T01:12:50;99907.91;;;-3.42;69.41
78673;BME280;67988;60.086;30.354;2023-02-26T01:15:19;99912.56;;;-3.27;68.84
78673;BME280;67988;60.086;30.354;2023-02-26T01:17:50;99904.09;;;-3.57;69.65
78673;BME280;67988;60.086;30.354;2023-02-26T01:20:20;99911.22;;;-3.63;70.23
78673;BME280;67988;60.086;30.354;2023-02-26T01:22:51;99918.84;;;-3.57;70.21
78673;BME280;67988;60.086;30.354;2023-02-26T01:25:23;99914.16;;;-3.72;70.57
78673;BME280;67988;60.086;30.354;2023-02-26T01:27:51;99832.16;;;-4.09;70.37
78673;BME280;67988;60.086;30.354;2023-02-26T01:30:24;99886.41;;;-3.72;69.96
78673;BME280;67988;60.086;30.354;2023-02-26T01:32:58;99915.19;;;-3.52;69.62
78673;BME280;67988;60.086;30.354;2023-02-26T01:35:39;99916.75;;;-3.72;70.07
78673;BME280;67988;60.086;30.354;2023-02-26T01:38:15;99906.16;;;-3.66;70.10
78673;BME280;67988;60.086;30.354;2023-02-26T01:43:54;99923.66;;;-3.71;70.57
78673;BME280;67988;60.086;30.354;2023-02-26T01:46:30;99924.69;;;-3.77;70.75
78673;BME280;67988;60.086;30.354;2023-02-26T01:49:01;99929.44;;;-3.63;70.69
78673;BME280;67988;60.086;30.354;2023-02-26T01:51:44;99917.44;;;-3.67;70.46
78673;BME280;67988;60.086;30.354;2023-02-26T01:54:11;99900.91;;;-3.93;71.58
78673;BME280;67988;60.086;30.354;2023-02-26T01:56:40;99917.75;;;-3.76;71.09
78673;BME280;67988;60.086;30.354;2023-02-26T01:59:08;99920.44;;;-3.80;71.31
78673;BME280;67988;60.086;30.354;2023-02-26T02:01:39;99921.41;;;-3.82;71.72
78673;BME280;67988;60.086;30.354;2023-02-26T02:04:10;99907.25;;;-3.73;71.13
78673;BME280;67988;60.086;30.354;2023-02-26T02:06:38;99930.41;;;-3.66;70.86
78673;BME280;67988;60.086;30.354;2023-02-26T02:09:07;99877.59;;;-3.94;70.81
78673;BME280;67988;60.086;30.354;2023-02-26T02:11:40;99914.63;;;-3.61;70.78
78673;BME280;67988;60.086;30.354;2023-02-26T02:14:19;99912.13;;;-3.64;70.65
78673;BME280;67988;60.086;30.354;2023-02-26T02:16:56;99911.00;;;-3.56;70.70
78673;BME280;67988;60.086;30.354;2023-02-26T02:19:51;99908.47;;;-3.59;71.10
78673;BME280;67988;60.086;30.354;2023-02-26T02:22:39;99909.78;;;-3.46;70.44
78673;BME280;67988;60.086;30.354;2023-02-26T02:25:25;99909.53;;;-3.64;71.45
78673;BME280;67988;60.086;30.354;2023-02-26T02:28:04;99902.53;;;-3.62;71.64
78673;BME280;67988;60.086;30.354;2023-02-26T02:30:37;99909.63;;;-3.41;71.00
78673;BME280;67988;60.086;30.354;2023-02-26T02:33:12;99906.94;;;-3.64;71.37
78673;BME280;67988;60.086;30.354;2023-02-26T02:35:44;99906.06;;;-3.65;71.30
78673;BME280;67988;60.086;30.354;2023-02-26T02:38:16;99918.28;;;-3.67;71.43
78673;BME280;67988;60.086;30.354;2023-02-26T02:40:50;99898.13;;;-3.87;72.16
78673;BME280;67988;60.086;30.354;2023-02-26T02:43:21;99867.41;;;-4.00;71.60
78673;BME280;67988;60.086;30.354;2023-02-26T02:45:54;99914.22;;;-3.75;71.99
78673;BME280;67988;60.086;30.354;2023-02-26T02:48:25;99921.25;;;-3.77;72.03
78673;BME280;67988;60.086;30.354;2023-02-26T02:50:58;99920.81;;;-3.65;71.27
78673;BME280;67988;60.086;30.354;2023-02-26T02:53:28;99918.38;;;-3.70;71.12
78673;BME280;67988;60.086;30.354;2023-02-26T02:55:57;99915.69;;;-3.67;71.28
78673;BME280;67988;60.086;30.354;2023-02-26T02:58:29;99915.63;;;-3.65;70.94
78673;BME280;67988;60.086;30.354;2023-02-26T03:00:59;99923.22;;;-3.59;71.20
78673;BME280;67988;60.086;30.354;2023-02-26T03:03:33;99916.53;;;-3.40;70.44
78673;BME280;67988;60.086;30.354;2023-02-26T03:06:01;99910.50;;;-3.42;70.38
78673;BME280;67988;60.086;30.354;2023-02-26T03:08:31;99914.44;;;-3.30;69.78
78673;BME280;67988;60.086;30.354;2023-02-26T03:11:00;99913.03;;;-3.39;69.76
78673;BME280;67988;60.086;30.354;2023-02-26T03:13:27;99903.41;;;-3.37;69.98
78673;BME280;67988;60.086;30.354;2023-02-26T03:16:11;99916.00;;;-3.25;69.68
78673;BME280;67988;60.086;30.354;2023-02-26T03:18:49;99884.41;;;-3.65;70.87
78673;BME280;67988;60.086;30.354;2023-02-26T03:21:26;99917.16;;;-3.60;72.10
78673;BME280;67988;60.086;30.354;2023-02-26T03:23:59;99928.84;;;-3.45;71.50
78673;BME280;67988;60.086;30.354;2023-02-26T03:26:33;99911.31;;;-3.40;71.07
78673;BME280;67988;60.086;30.354;2023-02-26T03:29:09;99920.50;;;-3.30;70.58
78673;BME280;67988;60.086;30.354;2023-02-26T03:31:45;99906.28;;;-3.45;70.19
78673;BME280;67988;60.086;30.354;2023-02-26T03:34:16;99919.00;;;-3.37;70.38
78673;BME280;67988;60.086;30.354;2023-02-26T03:36:47;99885.53;;;-3.46;69.68
78673;BME280;67988;60.086;30.354;2023-02-26T03:39:24;99918.25;;;-3.16;69.37
78673;BME280;67988;60.086;30.354;2023-02-26T03:41:55;99927.00;;;-3.17;69.19
78673;BME280;67988;60.086;30.354;2023-02-26T03:44:29;99932.13;;;-3.40;69.45
78673;BME280;67988;60.086;30.354;2023-02-26T03:47:01;99931.59;;;-3.50;70.33
78673;BME280;67988;60.086;30.354;2023-02-26T03:49:36;99923.72;;;-3.74;71.06
78673;BME280;67988;60.086;30.354;2023-02-26T03:52:04;99919.16;;;-3.66;70.69
78673;BME280;67988;60.086;30.354;2023-02-26T03:54:44;99894.28;;;-4.01;71.31
78673;BME280;67988;60.086;30.354;2023-02-26T03:57:32;99935.47;;;-3.89;71.64
78673;BME280;67988;60.086;30.354;2023-02-26T04:00:16;99920.63;;;-3.86;71.51
78673;BME280;67988;60.086;30.354;2023-02-26T04:02:58;99913.16;;;-3.96;71.13
78673;BME280;67988;60.086;30.354;2023-02-26T04:05:30;99924.94;;;-3.85;71.12
78673;BME280;67988;60.086;30.354;2023-02-26T04:07:58;99917.69;;;-3.75;71.04
78673;BME280;67988;60.086;30.354;2023-02-26T04:10:32;99869.47;;;-4.10;70.91
78673;BME280;67988;60.086;30.354;2023-02-26T04:13:02;99912.25;;;-3.67;70.38
78673;BME280;67988;60.086;30.354;2023-02-26T04:15:29;99925.63;;;-3.53;69.83
78673;BME280;67988;60.086;30.354;2023-02-26T04:17:56;99908.81;;;-3.69;70.06
78673;BME280;67988;60.086;30.354;2023-02-26T04:20:23;99922.72;;;-3.70;70.17
78673;BME280;67988;60.086;30.354;2023-02-26T04:22:51;99901.38;;;-3.80;70.18
78673;BME280;67988;60.086;30.354;2023-02-26T04:25:21;99919.56;;;-3.80;70.09
78673;BME280;67988;60.086;30.354;2023-02-26T04:27:50;99857.38;;;-4.11;69.90
78673;BME280;67988;60.086;30.354;2023-02-26T04:30:17;99927.91;;;-3.70;69.57
78673;BME280;67988;60.086;30.354;2023-02-26T04:32:45;99912.59;;;-3.78;69.57
78673;BME280;67988;60.086;30.354;2023-02-26T04:35:14;99918.78;;;-3.56;69.00
78673;BME280;67988;60.086;30.354;2023-02-26T04:37:41;99914.53;;;-3.58;68.62
78673;BME280;67988;60.086;30.354;2023-02-26T04:40:12;99920.38;;;-3.52;68.42
78673;BME280;67988;60.086;30.354;2023-02-26T04:42:39;99906.22;;;-3.69;68.78
78673;BME280;67988;60.086;30.354;2023-02-26T04:45:06;99916.94;;;-3.78;68.86
78673;BME280;67988;60.086;30.354;2023-02-26T04:47:36;99895.44;;;-3.84;69.16
78673;BME280;67988;60.086;30.354;2023-02-26T04:50:03;99895.28;;;-3.79;69.03
78673;BME280;67988;60.086;30.354;2023-02-26T04:52:30;99912.56;;;-3.76;68.81
78673;BME280;67988;60.086;30.354;2023-02-26T04:54:58;99925.25;;;-3.67;68.77
78673;BME280;67988;60.086;30.354;2023-02-26T04:57:26;99923.56;;;-3.70;68.53
78673;BME280;67988;60.086;30.354;2023-02-26T04:59:53;99916.75;;;-3.72;68.93
78673;BME280;67988;60.086;30.354;2023-02-26T05:02:25;99928.56;;;-3.64;68.81
78673;BME280;67988;60.086;30.354;2023-02-26T05:04:52;99932.00;;;-3.62;68.93
78673;BME280;67988;60.086;30.354;2023-02-26T05:07:19;99934.38;;;-3.56;68.16
78673;BME280;67988;60.086;30.354;2023-02-26T05:09:48;99921.78;;;-3.68;68.33
78673;BME280;67988;60.086;30.354;2023-02-26T05:12:15;99930.16;;;-3.60;68.37
78673;BME280;67988;60.086;30.354;2023-02-26T05:14:43;99922.38;;;-3.60;68.29
78673;BME280;67988;60.086;30.354;2023-02-26T05:17:11;99931.72;;;-3.81;68.77
78673;BME280;67988;60.086;30.354;2023-02-26T05:19:37;99922.88;;;-3.75;68.92
78673;BME280;67988;60.086;30.354;2023-02-26T05:22:05;99929.59;;;-3.68;68.88
78673;BME280;67988;60.086;30.354;2023-02-26T05:24:32;99937.88;;;-3.83;68.98
78673;BME280;67988;60.086;30.354;2023-02-26T05:26:59;99880.81;;;-4.14;69.51
78673;BME280;67988;60.086;30.354;2023-02-26T05:29:28;99926.44;;;-3.77;69.98
78673;BME280;67988;60.086;30.354;2023-02-26T05:31:57;99925.16;;;-3.92;69.50
78673;BME280;67988;60.086;30.354;2023-02-26T05:34:24;99934.03;;;-3.71;69.65
78673;BME280;67988;60.086;30.354;2023-02-26T05:36:50;99941.22;;;-3.80;69.35
78673;BME280;67988;60.086;30.354;2023-02-26T05:39:17;99923.13;;;-3.83;69.64
78673;BME280;67988;60.086;30.354;2023-02-26T05:41:44;99928.72;;;-3.95;69.62
78673;BME280;67988;60.086;30.354;2023-02-26T05:44:12;99922.63;;;-3.94;70.31
78673;BME280;67988;60.086;30.354;2023-02-26T05:46:39;99930.25;;;-3.88;70.35
78673;BME280;67988;60.086;30.354;2023-02-26T05:49:08;99937.38;;;-3.94;69.89
78673;BME280;67988;60.086;30.354;2023-02-26T05:51:35;99932.03;;;-3.90;70.05
78673;BME280;67988;60.086;30.354;2023-02-26T05:54:02;99919.88;;;-3.89;69.65
78673;BME280;67988;60.086;30.354;2023-02-26T05:56:29;99937.56;;;-4.00;70.15
78673;BME280;67988;60.086;30.354;2023-02-26T05:58:56;99946.28;;;-4.03;70.18
78673;BME280;67988;60.086;30.354;2023-02-26T06:01:23;99944.50;;;-4.01;70.13
78673;BME280;67988;60.086;30.354;2023-02-26T06:03:50;99946.28;;;-4.03;70.09
78673;BME280;67988;60.086;30.354;2023-02-26T06:06:18;99956.03;;;-4.09;70.69
78673;BME280;67988;60.086;30.354;2023-02-26T06:08:46;99916.56;;;-4.20;70.38
78673;BME280;67988;60.086;30.354;2023-02-26T06:11:13;99935.47;;;-4.17;70.31
78673;BME280;67988;60.086;30.354;2023-02-26T06:13:40;99938.19;;;-4.20;70.74
78673;BME280;67988;60.086;30.354;2023-02-26T06:16:07;99932.44;;;-4.03;70.21
78673;BME280;67988;60.086;30.354;2023-02-26T06:18:34;99952.41;;;-4.04;70.21
78673;BME280;67988;60.086;30.354;2023-02-26T06:21:01;99937.72;;;-4.05;70.10
78673;BME280;67988;60.086;30.354;2023-02-26T06:23:29;99978.41;;;-4.05;70.64
78673;BME280;67988;60.086;30.354;2023-02-26T06:25:56;99970.50;;;-4.02;69.95
78673;BME280;67988;60.086;30.354;2023-02-26T06:28:24;99979.31;;;-4.06;69.87
78673;BME280;67988;60.086;30.354;2023-02-26T06:30:52;99946.28;;;-4.03;69.67
78673;BME280;67988;60.086;30.354;2023-02-26T06:33:19;99968.25;;;-4.13;69.73
78673;BME280;67988;60.086;30.354;2023-02-26T06:35:46;99949.88;;;-4.07;69.69
78673;BME280;67988;60.086;30.354;2023-02-26T06:38:13;99975.53;;;-3.96;69.36
78673;BME280;67988;60.086;30.354;2023-02-26T06:40:42;99977.56;;;-4.06;69.09
78673;BME280;67988;60.086;30.354;2023-02-26T06:43:09;99977.59;;;-4.07;69.04
78673;BME280;67988;60.086;30.354;2023-02-26T06:45:36;99970.81;;;-4.11;69.38
78673;BME280;67988;60.086;30.354;2023-02-26T06:48:03;99968.41;;;-3.90;69.12
78673;BME280;67988;60.086;30.354;2023-02-26T06:50:30;99968.50;;;-4.20;69.34
78673;BME280;67988;60.086;30.354;2023-02-26T06:52:57;99959.78;;;-4.19;69.98
78673;BME280;67988;60.086;30.354;2023-02-26T06:55:24;99917.59;;;-4.26;69.66
78673;BME280;67988;60.086;30.354;2023-02-26T06:57:53;99962.38;;;-4.19;70.28
78673;BME280;67988;60.086;30.354;2023-02-26T07:00:21;99972.66;;;-4.15;70.16
78673;BME280;67988;60.086;30.354;2023-02-26T07:02:48;99963.16;;;-4.16;70.27
78673;BME280;67988;60.086;30.354;2023-02-26T07:05:15;99993.13;;;-4.04;69.83
78673;BME280;67988;60.086;30.354;2023-02-26T07:07:42;99952.81;;;-4.17;69.85
78673;BME280;67988;60.086;30.354;2023-02-26T07:10:10;99971.72;;;-4.14;70.26
78673;BME280;67988;60.086;30.354;2023-02-26T07:12:38;99934.03;;;-4.26;69.86
78673;BME280;67988;60.086;30.354;2023-02-26T07:15:07;99955.53;;;-4.22;70.42
78673;BME280;67988;60.086;30.354;2023-02-26T07:17:34;99968.44;;;-4.19;70.44
78673;BME280;67988;60.086;30.354;2023-02-26T07:20:01;99969.63;;;-4.01;69.45
78673;BME280;67988;60.086;30.354;2023-02-26T07:22:34;99975.19;;;-4.13;70.27
78673;BME280;67988;60.086;30.354;2023-02-26T07:25:02;99963.47;;;-4.27;70.16
78673;BME280;67988;60.086;30.354;2023-02-26T07:27:29;99962.44;;;-4.21;70.06
78673;BME280;67988;60.086;30.354;2023-02-26T07:29:57;99972.22;;;-4.31;70.71
78673;BME280;67988;60.086;30.354;2023-02-26T07:32:26;99958.38;;;-4.30;71.19
78673;BME280;67988;60.086;30.354;2023-02-26T07:34:52;99996.34;;;-4.26;70.96
78673;BME280;67988;60.086;30.354;2023-02-26T07:37:20;99991.94;;;-4.24;70.88
78673;BME280;67988;60.086;30.354;2023-02-26T07:39:47;99979.84;;;-4.25;70.51
78673;BME280;67988;60.086;30.354;2023-02-26T07:42:14;99995.06;;;-4.12;70.20
78673;BME280;67988;60.086;30.354;2023-02-26T07:44:41;99957.28;;;-4.23;70.18
78673;BME280;67988;60.086;30.354;2023-02-26T07:47:09;99979.06;;;-4.27;70.35
78673;BME280;67988;60.086;30.354;2023-02-26T07:49:38;99986.44;;;-4.13;69.89
78673;BME280;67988;60.086;30.354;2023-02-26T07:52:05;99966.88;;;-4.25;70.29
78673;BME280;67988;60.086;30.354;2023-02-26T07:54:32;99984.09;;;-4.20;70.36
78673;BME280;67988;60.086;30.354;2023-02-26T07:56:59;99985.91;;;-4.24;69.97
78673;BME280;67988;60.086;30.354;2023-02-26T07:59:26;99976.38;;;-4.24;69.94
78673;BME280;67988;60.086;30.354;2023-02-26T08:01:53;99975.50;;;-4.24;69.58
78673;BME280;67988;60.086;30.354;2023-02-26T08:04:20;99957.31;;;-4.24;69.53
78673;BME280;67988;60.086;30.354;2023-02-26T08:06:49;100002.00;;;-4.13;69.79
78673;BME280;67988;60.086;30.354;2023-02-26T08:09:19;99995.31;;;-4.20;69.73
78673;BME280;67988;60.086;30.354;2023-02-26T08:11:46;99996.94;;;-4.16;69.07
78673;BME280;67988;60.086;30.354;2023-02-26T08:14:13;100010.63;;;-4.11;69.34
78673;BME280;67988;60.086;30.354;2023-02-26T08:16:40;99992.09;;;-3.99;69.02
78673;BME280;67988;60.086;30.354;2023-02-26T08:19:07;100007.91;;;-3.78;68.90
78673;BME280;67988;60.086;30.354;2023-02-26T08:21:34;100008.38;;;-3.94;68.45
78673;BME280;67988;60.086;30.354;2023-02-26T08:24:02;100008.38;;;-4.23;68.86
78673;BME280;67988;60.086;30.354;2023-02-26T08:26:29;100002.28;;;-4.22;68.96
78673;BME280;67988;60.086;30.354;2023-02-26T08:28:56;100010.59;;;-4.09;69.27
78673;BME280;67988;60.086;30.354;2023-02-26T08:31:23;100025.25;;;-4.08;68.88
78673;BME280;67988;60.086;30.354;2023-02-26T08:33:51;99979.19;;;-4.31;68.79
78673;BME280;67988;60.086;30.354;2023-02-26T08:36:18;100026.34;;;-4.15;68.92
78673;BME280;67988;60.086;30.354;2023-02-26T08:38:46;100037.28;;;-4.04;68.46
78673;BME280;67988;60.086;30.354;2023-02-26T08:41:15;100025.22;;;-4.07;68.40
78673;BME280;67988;60.086;30.354;2023-02-26T08:43:42;100047.16;;;-4.17;68.20
78673;BME280;67988;60.086;30.354;2023-02-26T08:46:09;100024.31;;;-4.06;68.48
78673;BME280;67988;60.086;30.354;2023-02-26T08:48:36;100023.75;;;-4.15;67.53
78673;BME280;67988;60.086;30.354;2023-02-26T08:51:03;100037.50;;;-4.12;67.69
78673;BME280;67988;60.086;30.354;2023-02-26T08:53:30;100016.09;;;-4.20;67.98
78673;BME280;67988;60.086;30.354;2023-02-26T08:55:57;100039.59;;;-4.25;67.97
78673;BME280;67988;60.086;30.354;2023-02-26T08:58:26;100035.72;;;-4.10;67.64
78673;BME280;67988;60.086;30.354;2023-02-26T09:00:52;100063.47;;;-4.12;67.57
78673;BME280;67988;60.086;30.354;2023-02-26T09:03:19;100016.09;;;-4.20;67.49
78673;BME280;67988;60.086;30.354;2023-02-26T09:05:46;100045.50;;;-4.19;67.30
78673;BME280;67988;60.086;30.354;2023-02-26T09:08:13;100031.78;;;-4.25;67.34
78673;BME280;67988;60.086;30.354;2023-02-26T09:10:40;100052.63;;;-4.26;67.25
78673;BME280;67988;60.086;30.354;2023-02-26T09:13:07;100085.25;;;-4.16;67.04
78673;BME280;67988;60.086;30.354;2023-02-26T09:15:36;100042.41;;;-4.32;67.55
78673;BME280;67988;60.086;30.354;2023-02-26T09:18:03;100034.47;;;-4.26;67.11
78673;BME280;67988;60.086;30.354;2023-02-26T09:20:31;99977.53;;;-4.34;66.60
78673;BME280;67988;60.086;30.354;2023-02-26T09:22:58;100036.97;;;-4.25;67.59
78673;BME280;67988;60.086;30.354;2023-02-26T09:25:25;100053.91;;;-4.10;66.23
78673;BME280;67988;60.086;30.354;2023-02-26T09:27:51;100054.69;;;-4.08;66.08
78673;BME280;67988;60.086;30.354;2023-02-26T09:30:18;100054.06;;;-4.16;66.61
78673;BME280;67988;60.086;30.354;2023-02-26T09:32:47;100060.16;;;-4.17;66.49
78673;BME280;67988;60.086;30.354;2023-02-26T09:35:14;100049.63;;;-4.12;66.31
78673;BME280;67988;60.086;30.354;2023-02-26T09:37:41;100048.59;;;-4.07;65.54
78673;BME280;67988;60.086;30.354;2023-02-26T09:40:10;100051.84;;;-3.99;65.58
78673;BME280;67988;60.086;30.354;2023-02-26T09:43:01;100037.59;;;-4.15;66.22
78673;BME280;67988;60.086;30.354;2023-02-26T09:45:34;100045.06;;;-4.04;65.48
78673;BME280;67988;60.086;30.354;2023-02-26T09:48:05;100002.88;;;-4.12;65.71
78673;BME280;67988;60.086;30.354;2023-02-26T09:50:38;99978.13;;;-4.53;65.53
78673;BME280;67988;60.086;30.354;2023-02-26T09:53:13;100063.91;;;-3.98;65.21
78673;BME280;67988;60.086;30.354;2023-02-26T09:55:42;100060.84;;;-4.10;65.89
78673;BME280;67988;60.086;30.354;2023-02-26T09:58:17;100084.59;;;-3.93;65.81
78673;BME280;67988;60.086;30.354;2023-02-26T10:00:52;100053.03;;;-4.10;66.27
78673;BME280;67988;60.086;30.354;2023-02-26T10:03:28;100100.25;;;-4.26;66.24
78673;BME280;67988;60.086;30.354;2023-02-26T10:06:14;100094.25;;;-4.29;67.18
78673;BME280;67988;60.086;30.354;2023-02-26T10:08:50;100084.84;;;-4.33;67.35
78673;BME280;67988;60.086;30.354;2023-02-26T10:11:28;100083.00;;;-4.30;67.33
78673;BME280;67988;60.086;30.354;2023-02-26T10:14:01;100087.41;;;-4.32;66.44
78673;BME280;67988;60.086;30.354;2023-02-26T10:16:33;100078.91;;;-4.37;66.96
78673;BME280;67988;60.086;30.354;2023-02-26T10:19:05;100068.72;;;-4.44;67.21
78673;BME280;67988;60.086;30.354;2023-02-26T10:21:37;100114.34;;;-4.36;66.75
78673;BME280;67988;60.086;30.354;2023-02-26T10:24:12;100112.13;;;-4.49;67.20
78673;BME280;67988;60.086;30.354;2023-02-26T10:26:44;100073.50;;;-4.61;67.90
78673;BME280;67988;60.086;30.354;2023-02-26T10:29:17;100081.22;;;-4.58;67.51
78673;BME280;67988;60.086;30.354;2023-02-26T10:31:56;100013.84;;;-4.63;67.56
78673;BME280;67988;60.086;30.354;2023-02-26T10:34:31;100102.06;;;-4.61;68.06
78673;BME280;67988;60.086;30.354;2023-02-26T10:37:04;100097.44;;;-4.50;67.71
78673;BME280;67988;60.086;30.354;2023-02-26T10:39:42;100109.56;;;-4.51;67.45
78673;BME280;67988;60.086;30.354;2023-02-26T10:42:13;100117.94;;;-4.41;67.10
78673;BME280;67988;60.086;30.354;2023-02-26T10:44:49;100101.81;;;-4.52;67.52
78673;BME280;67988;60.086;30.354;2023-02-26T10:47:27;100089.97;;;-4.63;68.76
78673;BME280;67988;60.086;30.354;2023-02-26T10:50:01;100109.97;;;-4.34;68.41
78673;BME280;67988;60.086;30.354;2023-02-26T10:52:32;100116.91;;;-4.34;68.52
78673;BME280;67988;60.086;30.354;2023-02-26T10:55:26;100129.72;;;-4.28;68.13
78673;BME280;67988;60.086;30.354;2023-02-26T10:58:02;100129.13;;;-4.38;68.81
78673;BME280;67988;60.086;30.354;2023-02-26T11:00:30;100088.38;;;-4.36;68.86
78673;BME280;67988;60.086;30.354;2023-02-26T11:03:01;100122.06;;;-4.33;69.91
78673;BME280;67988;60.086;30.354;2023-02-26T11:05:32;100108.56;;;-4.45;70.16
78673;BME280;67988;60.086;30.354;2023-02-26T11:08:02;100105.03;;;-4.43;70.37
78673;BME280;67988;60.086;30.354;2023-02-26T11:10:41;100100.75;;;-4.45;70.12
78673;BME280;67988;60.086;30.354;2023-02-26T11:13:10;100122.28;;;-4.42;70.52
78673;BME280;67988;60.086;30.354;2023-02-26T11:15:38;100106.25;;;-4.57;71.75
78673;BME280;67988;60.086;30.354;2023-02-26T11:18:12;100130.19;;;-4.45;71.62
78673;BME280;67988;60.086;30.354;2023-02-26T11:20:44;100082.84;;;-4.54;71.17
78673;BME280;67988;60.086;30.354;2023-02-26T11:23:13;100081.44;;;-4.68;71.73
78673;BME280;67988;60.086;30.354;2023-02-26T11:25:43;100102.63;;;-4.50;72.32
78673;BME280;67988;60.086;30.354;2023-02-26T11:28:20;100069.44;;;-4.72;71.50
78673;BME280;67988;60.086;30.354;2023-02-26T11:30:47;100152.66;;;-4.44;71.43
78673;BME280;67988;60.086;30.354;2023-02-26T11:33:22;100148.81;;;-4.31;71.83
78673;BME280;67988;60.086;30.354;2023-02-26T11:35:51;100135.09;;;-4.34;71.72
78673;BME280;67988;60.086;30.354;2023-02-26T11:38:22;100087.94;;;-4.51;72.51
78673;BME280;67988;60.086;30.354;2023-02-26T11:40:53;100131.66;;;-4.36;72.21
78673;BME280;67988;60.086;30.354;2023-02-26T11:43:22;100156.13;;;-4.12;73.04
78673;BME280;67988;60.086;30.354;2023-02-26T11:45:53;100139.50;;;-4.38;71.53
78673;BME280;67988;60.086;30.354;2023-02-26T11:48:23;100164.31;;;-4.26;71.97
78673;BME280;67988;60.086;30.354;2023-02-26T11:50:56;100172.00;;;-4.23;72.58
78673;BME280;67988;60.086;30.354;2023-02-26T11:53:30;100151.88;;;-4.15;72.20
78673;BME280;67988;60.086;30.354;2023-02-26T11:56:02;100170.97;;;-3.85;72.70
78673;BME280;67988;60.086;30.354;2023-02-26T11:58:34;100172.22;;;-3.98;70.93
78673;BME280;67988;60.086;30.354;2023-02-26T12:01:03;100170.88;;;-4.13;70.87
78673;BME280;67988;60.086;30.354;2023-02-26T12:03:33;100163.16;;;-4.16;70.63
78673;BME280;67988;60.086;30.354;2023-02-26T12:06:07;100136.25;;;-4.46;70.58
78673;BME280;67988;60.086;30.354;2023-02-26T12:08:41;100205.63;;;-4.17;70.76
78673;BME280;67988;60.086;30.354;2023-02-26T12:11:50;100197.00;;;-4.19;70.71
78673;BME280;67988;60.086;30.354;2023-02-26T12:14:33;100202.34;;;-4.25;70.36
78673;BME280;67988;60.086;30.354;2023-02-26T12:17:14;100156.63;;;-4.31;70.14
78673;BME280;67988;60.086;30.354;2023-02-26T12:19:51;100193.78;;;-4.27;70.25
78673;BME280;67988;60.086;30.354;2023-02-26T12:22:38;100204.91;;;-4.24;70.88
78673;BME280;67988;60.086;30.354;2023-02-26T12:25:34;100206.06;;;-4.34;70.22
78673;BME280;67988;60.086;30.354;2023-02-26T12:28:18;100227.25;;;-4.16;70.01
78673;BME280;67988;60.086;30.354;2023-02-26T12:30:58;100227.13;;;-4.12;70.54
78673;BME280;67988;60.086;30.354;2023-02-26T12:33:37;100232.31;;;-4.12;70.38
78673;BME280;67988;60.086;30.354;2023-02-26T12:36:20;100217.06;;;-4.24;69.77
78673;BME280;67988;60.086;30.354;2023-02-26T12:39:01;100240.94;;;-4.10;69.79
78673;BME280;67988;60.086;30.354;2023-02-26T12:41:48;100213.50;;;-4.20;69.67
78673;BME280;67988;60.086;30.354;2023-02-26T12:44:30;100244.84;;;-4.28;69.87
78673;BME280;67988;60.086;30.354;2023-02-26T12:47:18;100257.88;;;-4.29;70.29
78673;BME280;67988;60.086;30.354;2023-02-26T12:50:22;100246.69;;;-4.31;69.88
78673;BME280;67988;60.086;30.354;2023-02-26T12:53:05;100255.28;;;-4.29;69.63
78673;BME280;67988;60.086;30.354;2023-02-26T12:55:48;100250.94;;;-4.29;69.20
78673;BME280;67988;60.086;30.354;2023-02-26T12:58:29;100254.41;;;-4.30;68.90
78673;BME280;67988;60.086;30.354;2023-02-26T13:01:18;100251.28;;;-4.42;69.28
78673;BME280;67988;60.086;30.354;2023-02-26T13:04:20;100262.94;;;-4.25;69.01
78673;BME280;67988;60.086;30.354;2023-02-26T13:07:13;100272.81;;;-4.37;69.10
78673;BME280;67988;60.086;30.354;2023-02-26T13:09:52;100265.94;;;-4.41;69.25